createdAt,value
2019-04-06T00:00:41.394Z,99.90
2019-04-06T00:03:10.810Z,99.90
2019-04-06T00:05:40.282Z,99.90
2019-04-06T00:08:09.984Z,99.90
2019-04-06T00:10:39.457Z,99.90
2019-04-06T00:13:09.082Z,99.90
2019-04-06T00:15:38.849Z,99.90
2019-04-06T00:18:08.222Z,99.90
2019-04-06T00:20:37.782Z,99.90
2019-04-06T00:23:07.416Z,99.90
2019-04-06T00:25:44.421Z,99.90
2019-04-06T00:28:08.324Z,99.90
2019-04-06T00:30:48.119Z,99.90
2019-04-06T00:33:19.019Z,99.90
2019-04-06T00:35:48.559Z,99.90
2019-04-06T00:38:18.171Z,99.90
2019-04-06T00:40:47.709Z,99.90
2019-04-06T00:43:17.198Z,99.90
2019-04-06T00:45:46.926Z,99.90
2019-04-06T00:48:16.320Z,99.90
2019-04-06T00:50:45.824Z,99.90
2019-04-06T00:53:15.350Z,99.90
2019-04-06T00:55:55.038Z,99.90
2019-04-06T00:58:16.004Z,99.90
2019-04-06T01:00:45.544Z,99.90
2019-04-06T01:03:14.890Z,99.90
2019-04-06T01:05:44.388Z,99.90
2019-04-06T01:08:14.093Z,99.90
2019-04-06T01:10:43.539Z,99.90
2019-04-06T01:13:13.043Z,99.90
2019-04-06T01:15:42.790Z,99.90
2019-04-06T01:18:12.170Z,99.90
2019-04-06T01:20:41.514Z,99.90
2019-04-06T01:23:10.908Z,99.90
2019-04-06T01:25:40.397Z,99.90
2019-04-06T01:28:09.996Z,99.90
2019-04-06T01:30:39.544Z,99.90
2019-04-06T01:33:09.094Z,99.90
2019-04-06T01:35:38.545Z,99.90
2019-04-06T01:38:08.149Z,99.90
2019-04-06T01:40:37.688Z,99.90
2019-04-06T01:43:07.269Z,99.90
2019-04-06T01:45:36.870Z,99.90
2019-04-06T01:48:06.391Z,99.90
2019-04-06T01:50:35.886Z,99.90
2019-04-06T01:53:05.425Z,99.90
2019-04-06T01:55:35.139Z,99.90
2019-04-06T01:58:04.544Z,99.90
2019-04-06T02:00:34.295Z,99.90
2019-04-06T02:03:03.821Z,99.90
2019-04-06T02:05:33.415Z,99.90
2019-04-06T02:08:03.038Z,99.90
2019-04-06T02:10:32.281Z,99.90
2019-04-06T02:13:02.485Z,99.90
2019-04-06T02:15:31.866Z,99.90
2019-04-06T02:18:01.419Z,99.90
2019-04-06T02:20:30.795Z,99.90
2019-04-06T02:23:00.230Z,99.90
2019-04-06T02:25:29.549Z,99.90
2019-04-06T02:27:59.336Z,99.90
2019-04-06T02:30:38.402Z,99.90
2019-04-06T02:33:39.397Z,99.90
2019-04-06T02:36:23.523Z,99.90
2019-04-06T02:39:26.869Z,99.90
2019-04-06T02:42:17.795Z,99.90
2019-04-06T02:44:47.152Z,99.90
2019-04-06T02:47:16.551Z,99.90
2019-04-06T02:49:45.888Z,99.90
2019-04-06T02:52:15.351Z,99.90
2019-04-06T02:54:45.132Z,99.90
2019-04-06T02:57:14.541Z,99.90
2019-04-06T02:59:43.947Z,99.90
2019-04-06T03:02:13.432Z,99.90
2019-04-06T03:04:43.074Z,99.90
2019-04-06T03:07:12.811Z,99.90
2019-04-06T03:09:42.188Z,99.90
2019-04-06T03:12:11.763Z,99.90
2019-04-06T03:14:44.241Z,99.90
2019-04-06T03:17:12.306Z,99.90
2019-04-06T03:19:41.894Z,99.90
2019-04-06T03:22:11.244Z,99.90
2019-04-06T03:24:40.493Z,99.90
2019-04-06T03:27:11.312Z,99.90
2019-04-06T03:29:40.970Z,99.90
2019-04-06T03:32:10.905Z,99.90
2019-04-06T03:34:41.212Z,99.90
2019-04-06T03:37:11.263Z,99.90
2019-04-06T03:39:40.749Z,99.90
2019-04-06T03:42:11.182Z,99.90
2019-04-06T03:44:40.838Z,99.90
2019-04-06T03:47:10.469Z,99.90
2019-04-06T03:49:39.931Z,99.90
2019-04-06T03:52:10.076Z,99.90
2019-04-06T03:54:39.502Z,99.90
2019-04-06T03:57:15.834Z,99.90
2019-04-06T03:59:40.162Z,99.90
2019-04-06T04:02:09.629Z,99.90
2019-04-06T04:04:39.289Z,99.90
2019-04-06T04:07:08.687Z,99.90
2019-04-06T04:09:38.315Z,99.90
2019-04-06T04:12:07.982Z,99.90
2019-04-06T04:14:37.366Z,99.90
2019-04-06T04:17:07.126Z,99.90
2019-04-06T04:19:36.635Z,99.90
2019-04-06T04:22:06.077Z,99.90
2019-04-06T04:24:35.625Z,99.90
2019-04-06T04:27:05.282Z,99.90
2019-04-06T04:29:34.671Z,99.90
2019-04-06T04:32:04.250Z,99.90
2019-04-06T04:34:33.966Z,99.90
2019-04-06T04:37:03.379Z,99.90
2019-04-06T04:39:32.748Z,99.90
2019-04-06T04:42:02.442Z,99.90
2019-04-06T04:44:31.860Z,99.90
2019-04-06T04:47:01.376Z,99.90
2019-04-06T04:49:30.880Z,99.90
2019-04-06T04:52:00.431Z,99.90
2019-04-06T04:54:30.028Z,99.90
2019-04-06T04:56:59.512Z,99.90
2019-04-06T04:59:29.147Z,99.90
2019-04-06T05:01:58.666Z,99.90
2019-04-06T05:04:28.146Z,99.90
2019-04-06T05:06:57.706Z,99.90
2019-04-06T05:09:27.370Z,99.90
2019-04-06T05:11:56.863Z,99.90
2019-04-06T05:15:13.095Z,99.90
2019-04-06T05:17:42.776Z,99.90
2019-04-06T05:27:02.021Z,99.90
2019-04-06T05:29:33.108Z,99.90
2019-04-06T05:32:02.837Z,99.90
2019-04-06T05:34:32.331Z,99.90
2019-04-06T05:37:01.913Z,99.90
2019-04-06T05:39:31.484Z,99.90
2019-04-06T05:42:01.074Z,99.90
2019-04-06T05:44:30.498Z,99.90
2019-04-06T05:46:59.944Z,99.90
2019-04-06T05:49:29.323Z,99.90
2019-04-06T05:51:58.859Z,99.90
2019-04-06T05:54:28.375Z,99.90
2019-04-06T05:56:57.971Z,99.90
2019-04-06T05:59:27.609Z,99.90
2019-04-06T06:01:57.222Z,99.90
2019-04-06T06:04:26.704Z,99.90
2019-04-06T06:06:56.326Z,99.90
2019-04-06T06:09:26.231Z,99.90
2019-04-06T06:11:56.093Z,99.90
2019-04-06T06:14:25.920Z,99.90
2019-04-06T06:16:55.675Z,99.90
2019-04-06T06:19:25.079Z,99.90
2019-04-06T06:21:54.544Z,99.90
2019-04-06T06:24:24.476Z,99.90
2019-04-06T06:26:53.951Z,99.90
2019-04-06T06:29:23.505Z,99.90
2019-04-06T06:31:52.938Z,99.90
2019-04-06T06:34:23.044Z,99.90
2019-04-06T06:36:52.563Z,99.90
2019-04-06T06:39:22.189Z,99.90
2019-04-06T06:41:51.950Z,99.90
2019-04-06T06:44:21.467Z,99.90
2019-04-06T06:46:51.163Z,99.90
2019-04-06T06:49:20.865Z,99.90
2019-04-06T06:51:50.581Z,99.90
2019-04-06T06:54:20.236Z,99.90
2019-04-06T06:56:49.615Z,99.90
2019-04-06T06:59:19.123Z,99.90
2019-04-06T07:01:48.610Z,99.90
2019-04-06T07:04:18.321Z,99.90
2019-04-06T07:06:47.821Z,99.90
2019-04-06T07:09:17.334Z,99.90
2019-04-06T07:11:46.991Z,99.90
2019-04-06T07:14:16.552Z,99.90
2019-04-06T07:16:46.655Z,99.90
2019-04-06T07:19:16.335Z,99.90
2019-04-06T07:21:45.866Z,99.90
2019-04-06T07:24:15.462Z,99.90
2019-04-06T07:26:44.891Z,99.90
2019-04-06T07:29:14.573Z,99.90
2019-04-06T07:31:44.134Z,99.90
2019-04-06T07:34:13.498Z,99.90
2019-04-06T07:36:43.146Z,99.90
2019-04-06T07:39:14.154Z,99.90
2019-04-06T07:41:44.021Z,99.90
2019-04-06T07:44:13.787Z,99.90
2019-04-06T07:46:43.377Z,99.90
2019-04-06T07:49:13.007Z,99.90
2019-04-06T07:51:42.600Z,99.90
2019-04-06T07:54:12.069Z,99.90
2019-04-06T07:56:41.692Z,99.90
2019-04-06T07:59:11.049Z,99.90
2019-04-06T08:01:40.523Z,99.90
2019-04-06T08:04:10.277Z,99.90
2019-04-06T08:06:39.903Z,99.90
2019-04-06T08:09:10.169Z,99.90
2019-04-06T08:11:39.877Z,99.90
2019-04-06T08:14:09.432Z,99.90
2019-04-06T08:16:39.305Z,99.90
2019-04-06T08:19:08.808Z,99.90
2019-04-06T08:21:38.358Z,99.90
2019-04-06T08:24:07.741Z,99.90
2019-04-06T08:26:37.552Z,99.90
2019-04-06T08:29:06.919Z,99.90
2019-04-06T08:31:36.667Z,99.90
2019-04-06T08:34:06.072Z,99.90
2019-04-06T08:36:35.839Z,99.90
2019-04-06T08:39:08.211Z,99.90
2019-04-06T08:41:37.999Z,99.90
2019-04-06T08:44:07.907Z,99.90
2019-04-06T08:46:37.547Z,99.90
2019-04-06T08:49:07.216Z,99.90
2019-04-06T08:51:36.703Z,99.90
2019-04-06T08:54:06.076Z,99.90
2019-04-06T08:56:35.888Z,99.90
2019-04-06T08:59:11.607Z,99.90
2019-04-06T09:01:37.298Z,99.90
2019-04-06T09:04:07.175Z,99.90
2019-04-06T09:06:37.400Z,99.90
2019-04-06T09:09:08.288Z,99.90
2019-04-06T09:11:38.887Z,99.90
2019-04-06T09:14:08.329Z,99.90
2019-04-06T09:16:38.443Z,99.90
2019-04-06T09:19:08.640Z,99.90
2019-04-06T09:21:38.753Z,99.90
2019-04-06T09:24:08.342Z,99.90
2019-04-06T09:26:38.462Z,99.90
2019-04-06T09:29:08.041Z,99.90
2019-04-06T09:31:38.126Z,99.90
2019-04-06T09:34:07.860Z,99.90
2019-04-06T09:36:37.624Z,99.90
2019-04-06T09:39:07.702Z,99.90
2019-04-06T09:41:37.662Z,99.90
2019-04-06T09:44:08.935Z,99.90
2019-04-06T09:46:56.205Z,99.90
2019-04-06T09:49:44.673Z,99.90
2019-04-06T09:52:26.314Z,99.90
2019-04-06T09:55:14.983Z,99.90
2019-04-06T09:58:12.701Z,99.90
2019-04-06T10:01:10.649Z,99.90
2019-04-06T10:03:50.783Z,99.90
2019-04-06T10:06:48.226Z,99.90
2019-04-06T10:09:34.797Z,99.90
2019-04-06T10:12:26.829Z,99.90
2019-04-06T10:15:24.323Z,99.90
2019-04-06T10:18:11.483Z,99.90
2019-04-06T10:21:00.218Z,99.90
2019-04-06T10:24:00.839Z,99.90
2019-04-06T10:26:58.565Z,99.90
2019-04-06T10:29:48.036Z,99.90
2019-04-06T10:32:36.501Z,99.90
2019-04-06T10:35:24.447Z,99.90
2019-04-06T10:38:12.849Z,99.90
2019-04-06T10:41:01.439Z,99.90
2019-04-06T10:43:55.669Z,99.90
2019-04-06T10:46:37.553Z,99.90
2019-04-06T10:49:35.507Z,99.90
2019-04-06T10:52:22.522Z,99.90
2019-04-06T10:55:20.394Z,99.90
2019-04-06T10:58:08.931Z,99.90
2019-04-06T11:01:10.073Z,99.90
2019-04-06T11:03:45.781Z,99.90
2019-04-06T11:06:30.810Z,99.90
2019-04-06T11:09:16.048Z,99.90
2019-04-06T11:12:05.461Z,99.90
2019-04-06T11:14:54.125Z,99.90
2019-04-06T11:17:49.051Z,99.90
2019-04-06T11:20:36.357Z,99.90
2019-04-06T11:23:23.932Z,99.90
2019-04-06T11:26:08.238Z,99.90
2019-04-06T11:28:46.985Z,99.90
2019-04-06T11:31:22.315Z,99.90
2019-04-06T11:34:09.978Z,99.90
2019-04-06T11:36:45.550Z,99.90
2019-04-06T11:39:39.748Z,99.90
2019-04-06T11:42:21.299Z,99.90
2019-04-06T11:45:03.440Z,99.90
2019-04-06T11:47:52.062Z,99.90
2019-04-06T11:50:46.470Z,99.90
2019-04-06T11:53:44.512Z,99.90
2019-04-06T11:56:31.899Z,99.90
2019-04-06T11:59:10.843Z,99.90
2019-04-06T12:01:54.702Z,99.90
2019-04-06T12:04:39.793Z,99.90
2019-04-06T12:07:37.324Z,99.90
2019-04-06T12:10:26.006Z,99.90
2019-04-06T12:13:29.929Z,99.90
2019-04-06T12:16:18.810Z,99.90
2019-04-06T12:19:16.559Z,99.90
2019-04-06T12:22:07.373Z,99.90
2019-04-06T12:24:55.762Z,99.90
2019-04-06T12:27:44.311Z,99.90
2019-04-06T12:30:38.499Z,99.90
2019-04-06T12:33:12.250Z,99.90
2019-04-06T12:36:03.837Z,99.90
2019-04-06T12:38:40.170Z,99.90
2019-04-06T12:41:28.756Z,99.90
2019-04-06T12:44:10.286Z,99.90
2019-04-06T12:47:01.062Z,99.90
2019-04-06T12:49:52.629Z,99.90
2019-04-06T12:52:29.200Z,99.90
2019-04-06T12:55:23.647Z,99.90
2019-04-06T12:58:11.186Z,99.90
2019-04-06T13:01:06.099Z,99.90
2019-04-06T13:04:03.863Z,99.90
2019-04-06T13:06:56.265Z,99.90
2019-04-06T13:09:45.324Z,99.90
2019-04-06T13:12:32.598Z,99.90
2019-04-06T13:15:20.944Z,99.90
2019-04-06T13:18:14.568Z,99.90
2019-04-06T13:21:03.255Z,99.90
2019-04-06T13:23:55.465Z,99.90
2019-04-06T13:26:38.739Z,99.90
2019-04-06T13:29:26.761Z,99.90
2019-04-06T13:32:17.326Z,99.90
2019-04-06T13:35:06.184Z,99.90
2019-04-06T13:38:09.975Z,99.90
2019-04-06T13:40:59.562Z,99.90
2019-04-06T13:43:57.761Z,99.90
2019-04-06T13:46:58.995Z,99.90
2019-04-06T13:49:36.708Z,99.90
2019-04-06T13:52:28.135Z,99.90
2019-04-06T13:55:19.833Z,99.90
2019-04-06T13:57:57.270Z,99.90
2019-04-06T14:00:51.630Z,99.90
2019-04-06T14:03:40.630Z,99.90
2019-04-06T14:06:35.480Z,99.90
2019-04-06T14:09:26.738Z,99.90
2019-04-06T14:12:02.732Z,99.90
2019-04-06T14:14:57.632Z,99.90
2019-04-06T14:17:44.954Z,99.90
2019-04-06T14:20:32.601Z,99.90
2019-04-06T14:23:24.310Z,99.90
2019-04-06T14:26:21.888Z,99.90
2019-04-06T14:29:00.903Z,99.90
2019-04-06T14:31:52.745Z,99.90
2019-04-06T14:34:50.846Z,99.90
2019-04-06T14:37:42.375Z,99.90
2019-04-06T14:40:31.536Z,99.90
2019-04-06T14:43:20.170Z,99.90
2019-04-06T14:46:07.737Z,99.90
2019-04-06T14:49:10.514Z,99.90
2019-04-06T14:51:43.517Z,99.90
2019-04-06T14:54:31.133Z,99.90
2019-04-06T14:57:10.476Z,99.90
2019-04-06T15:00:08.224Z,99.90
2019-04-06T15:02:48.722Z,99.90
2019-04-06T15:05:49.258Z,99.90
2019-04-06T15:08:36.588Z,99.90
2019-04-06T15:11:23.034Z,99.90
2019-04-06T15:14:13.268Z,99.90
2019-04-06T15:17:01.864Z,99.90
2019-04-06T15:19:46.779Z,99.90
2019-04-06T15:22:35.364Z,99.90
2019-04-06T15:25:14.817Z,99.90
2019-04-06T15:28:06.620Z,99.90
2019-04-06T15:30:43.653Z,99.90
2019-04-06T15:33:29.233Z,99.90
2019-04-06T15:36:20.983Z,99.90
2019-04-06T15:39:02.565Z,99.90
2019-04-06T15:41:39.882Z,99.90
2019-04-06T15:44:25.794Z,99.30
2019-04-06T15:47:26.379Z,94.00
2019-04-06T15:50:17.683Z,94.20
2019-04-06T15:53:18.464Z,84.00
2019-04-06T15:56:09.960Z,85.90
2019-04-06T15:58:58.870Z,91.30
2019-04-06T16:01:58.826Z,93.20
2019-04-06T16:04:37.772Z,76.80
2019-04-06T16:07:32.711Z,68.40
2019-04-06T16:10:25.450Z,70.10
2019-04-06T16:13:20.157Z,81.70
2019-04-06T16:15:56.091Z,85.30
2019-04-06T16:18:47.665Z,72.40
2019-04-06T16:21:36.119Z,61.60
2019-04-06T16:24:23.924Z,63.10
2019-04-06T16:27:12.725Z,70.00
2019-04-06T16:30:04.728Z,88.40
2019-04-06T16:32:56.476Z,96.20
2019-04-06T16:35:43.812Z,99.20
2019-04-06T16:38:31.520Z,99.90
2019-04-06T16:41:20.298Z,99.90
2019-04-06T16:43:59.539Z,99.90
2019-04-06T16:46:41.693Z,99.90
2019-04-06T16:49:35.828Z,99.90
2019-04-06T16:52:27.756Z,99.90
2019-04-06T16:55:17.868Z,99.90
2019-04-06T16:58:15.441Z,99.90
2019-04-06T17:01:01.679Z,99.90
2019-04-06T17:03:42.006Z,99.90
2019-04-06T17:06:33.636Z,99.90
2019-04-06T17:09:14.450Z,99.90
2019-04-06T17:12:02.187Z,99.90
2019-04-06T17:14:49.646Z,99.90
2019-04-06T17:17:44.322Z,99.90
2019-04-06T17:20:33.095Z,99.90
2019-04-06T17:23:27.644Z,99.90
2019-04-06T17:26:16.678Z,99.90
2019-04-06T17:29:11.138Z,99.90
2019-04-06T17:32:18.275Z,99.90
2019-04-06T17:35:01.388Z,99.90
2019-04-06T17:38:02.543Z,99.90
2019-04-06T17:40:54.015Z,99.90
2019-04-06T17:43:47.040Z,99.90
2019-04-06T17:46:38.756Z,99.90
2019-04-06T17:49:26.159Z,99.90
2019-04-06T17:52:20.958Z,99.90
2019-04-06T17:55:09.423Z,99.90
2019-04-06T17:58:04.069Z,99.90
2019-04-06T18:01:05.390Z,99.90
2019-04-06T18:03:58.826Z,99.90
2019-04-06T18:06:47.275Z,99.90
2019-04-06T18:09:24.706Z,99.90
2019-04-06T18:12:05.837Z,99.90
2019-04-06T18:14:35.798Z,99.90
2019-04-06T18:17:05.985Z,99.90
2019-04-06T18:19:36.309Z,99.90
2019-04-06T18:22:06.581Z,99.90
2019-04-06T18:24:37.447Z,99.90
2019-04-06T18:27:07.175Z,99.90
2019-04-06T18:29:37.028Z,99.90
2019-04-06T18:32:41.040Z,99.90
2019-04-06T18:35:12.350Z,99.90
2019-04-06T18:37:50.426Z,99.90
2019-04-06T18:40:29.775Z,99.90
2019-04-06T18:42:59.898Z,99.90
2019-04-06T18:45:32.236Z,99.90
2019-04-06T18:48:02.138Z,99.90
2019-04-06T18:50:36.092Z,99.90
2019-04-06T18:53:03.463Z,99.90
2019-04-06T18:55:33.019Z,99.90
2019-04-06T18:58:09.659Z,99.90
2019-04-06T19:00:34.529Z,99.90
2019-04-06T19:03:12.092Z,99.90
2019-04-06T19:05:36.504Z,99.90
2019-04-06T19:08:06.824Z,99.90
2019-04-06T19:10:38.078Z,99.90
2019-04-06T19:13:07.750Z,99.90
2019-04-06T19:15:37.957Z,99.90
2019-04-06T19:18:07.813Z,99.90
2019-04-06T19:20:37.937Z,99.90
2019-04-06T19:23:08.152Z,99.90
2019-04-06T19:25:37.945Z,99.90
2019-04-06T19:28:07.897Z,99.90
2019-04-06T19:30:37.767Z,99.90
2019-04-06T19:33:08.329Z,99.90
2019-04-06T19:35:38.180Z,99.90
2019-04-06T19:38:07.954Z,99.90
2019-04-06T19:40:38.250Z,99.90
2019-04-06T19:43:08.207Z,99.90
2019-04-06T19:45:38.257Z,99.90
2019-04-06T19:48:08.527Z,99.90
2019-04-06T19:50:38.510Z,99.90
2019-04-06T19:53:08.510Z,99.90
2019-04-06T19:55:38.651Z,99.90
2019-04-06T19:58:08.781Z,99.90
2019-04-06T20:00:39.119Z,99.90
2019-04-06T20:03:09.236Z,99.90
2019-04-06T20:05:39.050Z,99.90
2019-04-06T20:08:09.725Z,99.90
2019-04-06T20:10:39.920Z,99.90
2019-04-06T20:13:09.916Z,99.90
2019-04-06T20:15:39.826Z,99.90
2019-04-06T20:18:09.609Z,99.90
2019-04-06T20:20:39.402Z,99.90
2019-04-06T20:23:09.574Z,99.90
2019-04-06T20:25:39.752Z,99.90
2019-04-06T20:28:09.774Z,99.90
2019-04-06T20:30:39.821Z,99.90
2019-04-06T20:33:09.731Z,99.90
2019-04-06T20:35:39.636Z,99.90
2019-04-06T20:38:09.248Z,99.90
2019-04-06T20:40:39.207Z,99.90
2019-04-06T20:43:09.041Z,99.90
2019-04-06T20:45:39.029Z,99.90
2019-04-06T20:48:09.367Z,99.90
2019-04-06T20:50:39.699Z,99.90
2019-04-06T20:53:09.896Z,99.90
2019-04-06T20:55:40.055Z,99.90
2019-04-06T20:58:09.581Z,99.90
2019-04-06T21:00:39.431Z,99.90
2019-04-06T21:03:09.635Z,99.90
2019-04-06T21:05:39.761Z,99.90
2019-04-06T21:08:09.257Z,99.90
2019-04-06T21:10:39.528Z,99.90
2019-04-06T21:13:09.117Z,99.90
2019-04-06T21:15:38.869Z,99.90
2019-04-06T21:18:08.911Z,99.90
2019-04-06T21:20:39.256Z,99.90
2019-04-06T21:23:09.322Z,99.90
2019-04-06T21:25:39.007Z,99.90
2019-04-06T21:28:08.843Z,99.90
2019-04-06T21:30:38.967Z,99.90
2019-04-06T21:33:08.843Z,99.90
2019-04-06T21:35:39.152Z,99.90
2019-04-06T21:38:08.942Z,99.90
2019-04-06T21:40:38.891Z,99.90
2019-04-06T21:43:09.919Z,99.90
2019-04-06T21:45:40.894Z,99.90
2019-04-06T21:48:11.597Z,99.90
2019-04-06T21:50:42.063Z,99.90
2019-04-06T21:53:12.148Z,99.90
2019-04-06T21:55:42.310Z,99.90
2019-04-06T21:58:11.980Z,99.90
2019-04-06T22:00:53.587Z,99.90
2019-04-06T22:03:23.642Z,99.90
2019-04-06T22:05:53.317Z,99.90
2019-04-06T22:08:23.284Z,99.90
2019-04-06T22:10:52.987Z,99.90
2019-04-06T22:13:23.059Z,99.90
2019-04-06T22:15:52.751Z,99.90
2019-04-06T22:18:22.618Z,99.90
2019-04-06T22:20:52.233Z,99.90
2019-04-06T22:23:22.558Z,99.90
2019-04-06T22:25:52.586Z,99.90
2019-04-06T22:28:22.026Z,99.90
2019-04-06T22:30:51.891Z,99.90
2019-04-06T22:33:21.746Z,99.90
2019-04-06T22:35:51.895Z,99.90
2019-04-06T22:38:21.654Z,99.90
2019-04-06T22:40:52.090Z,99.90
2019-04-06T22:43:21.711Z,99.90
2019-04-06T22:45:51.857Z,99.90
2019-04-06T22:48:21.394Z,99.90
2019-04-06T22:50:51.123Z,99.90
2019-04-06T22:53:20.648Z,99.90
2019-04-06T22:55:50.646Z,99.90
2019-04-06T22:58:20.914Z,99.90
2019-04-06T23:00:54.802Z,99.90
2019-04-06T23:03:43.757Z,99.90
2019-04-06T23:06:17.982Z,99.90
2019-04-06T23:08:47.701Z,99.90
2019-04-06T23:11:17.285Z,99.90
2019-04-06T23:13:48.121Z,99.90
2019-04-06T23:16:18.390Z,99.90
2019-04-06T23:18:48.103Z,99.90
2019-04-06T23:21:17.575Z,99.90
2019-04-06T23:23:47.453Z,99.90
2019-04-06T23:26:17.088Z,99.90
2019-04-06T23:28:46.731Z,99.90
2019-04-06T23:31:17.382Z,99.90
2019-04-06T23:33:47.210Z,99.90
2019-04-06T23:36:17.096Z,99.90
2019-04-06T23:38:46.665Z,99.90
2019-04-06T23:41:16.230Z,99.90
2019-04-06T23:43:47.258Z,99.90
2019-04-06T23:46:17.746Z,99.90
2019-04-06T23:48:47.817Z,99.90
2019-04-06T23:51:17.351Z,99.90
2019-04-06T23:53:46.884Z,99.90
2019-04-06T23:56:18.699Z,99.90
2019-04-06T23:58:48.683Z,99.90
